sensor_id;sensor_type;location;lat;lon;timestamp;P1;durP1;ratioP1;P2;durP2;ratioP2
22752;SDS011;11543;43.144;24.684;2022-08-19T00:01:32;5.68;;;3.70;;
22752;SDS011;11543;43.144;24.684;2022-08-19T00:04:00;9.13;;;4.07;;
22752;SDS011;11543;43.144;24.684;2022-08-19T00:06:28;7.65;;;3.85;;
22752;SDS011;11543;43.144;24.684;2022-08-19T00:08:54;9.40;;;4.18;;
22752;SDS011;11543;43.144;24.684;2022-08-19T00:11:21;5.32;;;4.28;;
22752;SDS011;11543;43.144;24.684;2022-08-19T00:13:47;5.25;;;4.00;;
22752;SDS011;11543;43.144;24.684;2022-08-19T00:16:15;4.47;;;3.78;;
22752;SDS011;11543;43.144;24.684;2022-08-19T00:18:43;7.30;;;4.10;;
22752;SDS011;11543;43.144;24.684;2022-08-19T00:21:08;6.38;;;4.00;;
22752;SDS011;11543;43.144;24.684;2022-08-19T00:23:34;8.30;;;4.20;;
22752;SDS011;11543;43.144;24.684;2022-08-19T00:26:02;5.65;;;3.90;;
22752;SDS011;11543;43.144;24.684;2022-08-19T00:28:31;6.18;;;4.68;;
22752;SDS011;11543;43.144;24.684;2022-08-19T00:30:58;8.15;;;4.45;;
22752;SDS011;11543;43.144;24.684;2022-08-19T00:33:23;7.90;;;4.40;;
22752;SDS011;11543;43.144;24.684;2022-08-19T00:35:49;8.18;;;4.85;;
22752;SDS011;11543;43.144;24.684;2022-08-19T00:38:14;8.60;;;4.40;;
22752;SDS011;11543;43.144;24.684;2022-08-19T00:40:41;7.75;;;4.90;;
22752;SDS011;11543;43.144;24.684;2022-08-19T00:43:11;6.03;;;4.82;;
22752;SDS011;11543;43.144;24.684;2022-08-19T00:45:38;8.90;;;4.63;;
22752;SDS011;11543;43.144;24.684;2022-08-19T00:48:07;10.02;;;5.25;;
22752;SDS011;11543;43.144;24.684;2022-08-19T00:50:33;8.70;;;4.93;;
22752;SDS011;11543;43.144;24.684;2022-08-19T00:52:59;6.97;;;5.13;;
22752;SDS011;11543;43.144;24.684;2022-08-19T00:55:29;7.22;;;5.13;;
22752;SDS011;11543;43.144;24.684;2022-08-19T00:58:02;8.05;;;4.97;;
22752;SDS011;11543;43.144;24.684;2022-08-19T01:00:33;9.30;;;4.65;;
22752;SDS011;11543;43.144;24.684;2022-08-19T01:03:04;6.05;;;4.60;;
22752;SDS011;11543;43.144;24.684;2022-08-19T01:05:32;9.43;;;5.03;;
22752;SDS011;11543;43.144;24.684;2022-08-19T01:07:59;7.03;;;4.72;;
22752;SDS011;11543;43.144;24.684;2022-08-19T01:10:28;7.15;;;4.68;;
22752;SDS011;11543;43.144;24.684;2022-08-19T01:12:57;6.30;;;5.25;;
22752;SDS011;11543;43.144;24.684;2022-08-19T01:15:30;6.50;;;4.60;;
22752;SDS011;11543;43.144;24.684;2022-08-19T01:18:00;6.95;;;5.22;;
22752;SDS011;11543;43.144;24.684;2022-08-19T01:20:29;6.05;;;4.95;;
22752;SDS011;11543;43.144;24.684;2022-08-19T01:22:56;8.38;;;5.18;;
22752;SDS011;11543;43.144;24.684;2022-08-19T01:25:28;6.78;;;5.13;;
22752;SDS011;11543;43.144;24.684;2022-08-19T01:28:01;8.80;;;5.53;;
22752;SDS011;11543;43.144;24.684;2022-08-19T01:30:28;7.57;;;4.70;;
22752;SDS011;11543;43.144;24.684;2022-08-19T01:32:56;9.48;;;4.97;;
22752;SDS011;11543;43.144;24.684;2022-08-19T01:35:24;7.53;;;5.05;;
22752;SDS011;11543;43.144;24.684;2022-08-19T01:37:52;8.30;;;5.65;;
22752;SDS011;11543;43.144;24.684;2022-08-19T01:40:18;8.70;;;6.10;;
22752;SDS011;11543;43.144;24.684;2022-08-19T01:42:47;11.15;;;5.70;;
22752;SDS011;11543;43.144;24.684;2022-08-19T01:45:14;7.45;;;4.90;;
22752;SDS011;11543;43.144;24.684;2022-08-19T01:47:40;7.47;;;5.15;;
22752;SDS011;11543;43.144;24.684;2022-08-19T01:50:06;7.78;;;5.20;;
22752;SDS011;11543;43.144;24.684;2022-08-19T01:52:37;7.80;;;5.10;;
22752;SDS011;11543;43.144;24.684;2022-08-19T01:55:05;8.77;;;5.30;;
22752;SDS011;11543;43.144;24.684;2022-08-19T01:57:33;7.72;;;4.70;;
22752;SDS011;11543;43.144;24.684;2022-08-19T01:59:58;4.80;;;4.30;;
22752;SDS011;11543;43.144;24.684;2022-08-19T02:02:25;7.30;;;3.97;;
22752;SDS011;11543;43.144;24.684;2022-08-19T02:04:50;7.00;;;4.25;;
22752;SDS011;11543;43.144;24.684;2022-08-19T02:07:18;7.38;;;4.47;;
22752;SDS011;11543;43.144;24.684;2022-08-19T02:09:46;7.18;;;4.97;;
22752;SDS011;11543;43.144;24.684;2022-08-19T02:12:13;7.30;;;4.55;;
22752;SDS011;11543;43.144;24.684;2022-08-19T02:14:39;6.47;;;4.45;;
22752;SDS011;11543;43.144;24.684;2022-08-19T02:17:05;9.35;;;5.10;;
22752;SDS011;11543;43.144;24.684;2022-08-19T02:19:30;10.82;;;5.00;;
22752;SDS011;11543;43.144;24.684;2022-08-19T02:21:57;9.55;;;4.75;;
22752;SDS011;11543;43.144;24.684;2022-08-19T02:24:23;7.45;;;5.60;;
22752;SDS011;11543;43.144;24.684;2022-08-19T02:26:49;9.70;;;5.60;;
22752;SDS011;11543;43.144;24.684;2022-08-19T02:29:16;7.47;;;5.28;;
22752;SDS011;11543;43.144;24.684;2022-08-19T02:31:42;8.05;;;5.85;;
22752;SDS011;11543;43.144;24.684;2022-08-19T02:34:07;8.80;;;5.38;;
22752;SDS011;11543;43.144;24.684;2022-08-19T02:36:33;8.10;;;5.60;;
22752;SDS011;11543;43.144;24.684;2022-08-19T02:38:59;7.47;;;5.30;;
22752;SDS011;11543;43.144;24.684;2022-08-19T02:41:26;8.95;;;5.32;;
22752;SDS011;11543;43.144;24.684;2022-08-19T02:43:54;7.80;;;5.50;;
22752;SDS011;11543;43.144;24.684;2022-08-19T02:46:23;6.47;;;5.05;;
22752;SDS011;11543;43.144;24.684;2022-08-19T02:48:50;8.30;;;5.05;;
22752;SDS011;11543;43.144;24.684;2022-08-19T02:51:18;6.93;;;5.10;;
22752;SDS011;11543;43.144;24.684;2022-08-19T02:53:45;7.35;;;5.80;;
22752;SDS011;11543;43.144;24.684;2022-08-19T02:56:11;7.63;;;4.93;;
22752;SDS011;11543;43.144;24.684;2022-08-19T02:58:37;9.80;;;5.30;;
22752;SDS011;11543;43.144;24.684;2022-08-19T03:01:02;8.73;;;5.32;;
22752;SDS011;11543;43.144;24.684;2022-08-19T03:03:28;9.27;;;5.32;;
22752;SDS011;11543;43.144;24.684;2022-08-19T03:06:08;6.90;;;5.18;;
22752;SDS011;11543;43.144;24.684;2022-08-19T03:08:36;9.73;;;5.28;;
22752;SDS011;11543;43.144;24.684;2022-08-19T03:11:02;10.65;;;5.35;;
22752;SDS011;11543;43.144;24.684;2022-08-19T03:13:28;9.85;;;5.53;;
22752;SDS011;11543;43.144;24.684;2022-08-19T03:15:54;7.47;;;5.57;;
22752;SDS011;11543;43.144;24.684;2022-08-19T03:18:19;8.73;;;5.50;;
22752;SDS011;11543;43.144;24.684;2022-08-19T03:20:46;7.97;;;5.68;;
22752;SDS011;11543;43.144;24.684;2022-08-19T03:23:15;7.80;;;6.03;;
22752;SDS011;11543;43.144;24.684;2022-08-19T03:25:42;8.07;;;6.22;;
22752;SDS011;11543;43.144;24.684;2022-08-19T03:28:11;7.75;;;5.40;;
22752;SDS011;11543;43.144;24.684;2022-08-19T03:30:38;10.52;;;5.85;;
22752;SDS011;11543;43.144;24.684;2022-08-19T03:33:05;5.97;;;5.35;;
22752;SDS011;11543;43.144;24.684;2022-08-19T03:35:31;14.18;;;6.28;;
22752;SDS011;11543;43.144;24.684;2022-08-19T03:38:00;7.80;;;5.80;;
22752;SDS011;11543;43.144;24.684;2022-08-19T03:40:25;7.72;;;5.38;;
22752;SDS011;11543;43.144;24.684;2022-08-19T03:42:51;7.60;;;5.63;;
22752;SDS011;11543;43.144;24.684;2022-08-19T03:45:16;7.43;;;5.65;;
22752;SDS011;11543;43.144;24.684;2022-08-19T03:47:42;10.30;;;6.07;;
22752;SDS011;11543;43.144;24.684;2022-08-19T03:50:08;7.38;;;5.60;;
22752;SDS011;11543;43.144;24.684;2022-08-19T03:52:34;12.25;;;6.00;;
22752;SDS011;11543;43.144;24.684;2022-08-19T03:55:01;10.07;;;6.15;;
22752;SDS011;11543;43.144;24.684;2022-08-19T03:57:26;10.45;;;5.97;;
22752;SDS011;11543;43.144;24.684;2022-08-19T03:59:52;9.77;;;5.95;;
22752;SDS011;11543;43.144;24.684;2022-08-19T04:02:17;9.63;;;5.97;;
22752;SDS011;11543;43.144;24.684;2022-08-19T04:04:43;6.68;;;5.85;;
22752;SDS011;11543;43.144;24.684;2022-08-19T04:07:09;7.72;;;5.90;;
22752;SDS011;11543;43.144;24.684;2022-08-19T04:09:35;12.18;;;5.65;;
22752;SDS011;11543;43.144;24.684;2022-08-19T04:12:02;8.90;;;5.93;;
22752;SDS011;11543;43.144;24.684;2022-08-19T04:14:30;9.98;;;5.63;;
22752;SDS011;11543;43.144;24.684;2022-08-19T04:16:57;9.88;;;5.50;;
22752;SDS011;11543;43.144;24.684;2022-08-19T04:19:24;10.25;;;5.70;;
22752;SDS011;11543;43.144;24.684;2022-08-19T04:21:52;11.05;;;5.90;;
22752;SDS011;11543;43.144;24.684;2022-08-19T04:24:19;8.63;;;5.93;;
22752;SDS011;11543;43.144;24.684;2022-08-19T04:26:45;8.40;;;6.43;;
22752;SDS011;11543;43.144;24.684;2022-08-19T04:29:18;10.93;;;5.93;;
22752;SDS011;11543;43.144;24.684;2022-08-19T04:31:47;7.35;;;5.47;;
22752;SDS011;11543;43.144;24.684;2022-08-19T04:34:14;8.15;;;5.28;;
22752;SDS011;11543;43.144;24.684;2022-08-19T04:36:42;9.15;;;5.20;;
22752;SDS011;11543;43.144;24.684;2022-08-19T04:39:13;9.63;;;5.60;;
22752;SDS011;11543;43.144;24.684;2022-08-19T04:41:41;8.98;;;5.35;;
22752;SDS011;11543;43.144;24.684;2022-08-19T04:44:26;8.60;;;4.97;;
22752;SDS011;11543;43.144;24.684;2022-08-19T04:46:55;9.88;;;5.63;;
22752;SDS011;11543;43.144;24.684;2022-08-19T04:49:21;9.65;;;5.72;;
22752;SDS011;11543;43.144;24.684;2022-08-19T04:51:49;10.55;;;5.72;;
22752;SDS011;11543;43.144;24.684;2022-08-19T04:54:18;9.85;;;5.13;;
22752;SDS011;11543;43.144;24.684;2022-08-19T04:56:47;9.48;;;6.13;;
22752;SDS011;11543;43.144;24.684;2022-08-19T04:59:14;11.05;;;6.07;;
22752;SDS011;11543;43.144;24.684;2022-08-19T05:01:42;9.88;;;6.00;;
22752;SDS011;11543;43.144;24.684;2022-08-19T05:04:08;7.28;;;6.00;;
22752;SDS011;11543;43.144;24.684;2022-08-19T05:06:34;11.25;;;5.78;;
22752;SDS011;11543;43.144;24.684;2022-08-19T05:09:02;8.68;;;5.68;;
22752;SDS011;11543;43.144;24.684;2022-08-19T05:11:31;7.85;;;5.65;;
22752;SDS011;11543;43.144;24.684;2022-08-19T05:13:58;9.05;;;5.65;;
22752;SDS011;11543;43.144;24.684;2022-08-19T05:16:24;6.80;;;5.63;;
22752;SDS011;11543;43.144;24.684;2022-08-19T05:18:51;9.52;;;6.28;;
22752;SDS011;11543;43.144;24.684;2022-08-19T05:21:35;8.43;;;6.03;;
22752;SDS011;11543;43.144;24.684;2022-08-19T05:24:20;9.82;;;6.35;;
22752;SDS011;11543;43.144;24.684;2022-08-19T05:26:47;11.05;;;7.43;;
22752;SDS011;11543;43.144;24.684;2022-08-19T05:29:15;11.00;;;7.10;;
22752;SDS011;11543;43.144;24.684;2022-08-19T05:31:42;10.32;;;7.03;;
22752;SDS011;11543;43.144;24.684;2022-08-19T05:34:08;9.15;;;6.55;;
22752;SDS011;11543;43.144;24.684;2022-08-19T05:36:35;8.18;;;6.00;;
22752;SDS011;11543;43.144;24.684;2022-08-19T05:39:05;11.10;;;6.45;;
22752;SDS011;11543;43.144;24.684;2022-08-19T05:41:31;8.32;;;6.10;;
22752;SDS011;11543;43.144;24.684;2022-08-19T05:43:58;9.23;;;6.18;;
22752;SDS011;11543;43.144;24.684;2022-08-19T05:46:26;8.52;;;5.85;;
22752;SDS011;11543;43.144;24.684;2022-08-19T05:48:52;11.18;;;5.72;;
22752;SDS011;11543;43.144;24.684;2022-08-19T05:51:17;7.70;;;5.43;;
22752;SDS011;11543;43.144;24.684;2022-08-19T05:53:43;10.27;;;5.65;;
22752;SDS011;11543;43.144;24.684;2022-08-19T05:56:11;10.23;;;5.43;;
22752;SDS011;11543;43.144;24.684;2022-08-19T05:58:39;7.32;;;5.68;;
22752;SDS011;11543;43.144;24.684;2022-08-19T06:01:09;9.23;;;5.60;;
22752;SDS011;11543;43.144;24.684;2022-08-19T06:03:39;9.57;;;6.30;;
22752;SDS011;11543;43.144;24.684;2022-08-19T06:06:09;9.98;;;6.00;;
22752;SDS011;11543;43.144;24.684;2022-08-19T06:08:36;7.72;;;5.30;;
22752;SDS011;11543;43.144;24.684;2022-08-19T06:11:13;7.68;;;5.28;;
22752;SDS011;11543;43.144;24.684;2022-08-19T06:13:42;6.57;;;5.28;;
22752;SDS011;11543;43.144;24.684;2022-08-19T06:16:08;6.93;;;5.05;;
22752;SDS011;11543;43.144;24.684;2022-08-19T06:18:33;11.23;;;4.70;;
22752;SDS011;11543;43.144;24.684;2022-08-19T06:20:59;7.07;;;4.60;;
22752;SDS011;11543;43.144;24.684;2022-08-19T06:23:29;7.82;;;4.93;;
22752;SDS011;11543;43.144;24.684;2022-08-19T06:25:55;9.15;;;4.72;;
22752;SDS011;11543;43.144;24.684;2022-08-19T06:28:21;8.18;;;5.57;;
22752;SDS011;11543;43.144;24.684;2022-08-19T06:30:48;7.25;;;4.72;;
22752;SDS011;11543;43.144;24.684;2022-08-19T06:33:15;8.82;;;4.95;;
22752;SDS011;11543;43.144;24.684;2022-08-19T06:35:41;9.55;;;5.43;;
22752;SDS011;11543;43.144;24.684;2022-08-19T06:38:07;8.10;;;5.00;;
22752;SDS011;11543;43.144;24.684;2022-08-19T06:40:34;6.63;;;4.65;;
22752;SDS011;11543;43.144;24.684;2022-08-19T06:43:00;10.27;;;5.50;;
22752;SDS011;11543;43.144;24.684;2022-08-19T06:45:27;9.82;;;6.80;;
22752;SDS011;11543;43.144;24.684;2022-08-19T06:47:53;14.05;;;8.38;;
22752;SDS011;11543;43.144;24.684;2022-08-19T06:50:24;7.75;;;5.65;;
22752;SDS011;11543;43.144;24.684;2022-08-19T06:52:50;14.35;;;11.18;;
22752;SDS011;11543;43.144;24.684;2022-08-19T06:55:16;12.57;;;9.15;;
22752;SDS011;11543;43.144;24.684;2022-08-19T06:57:42;11.10;;;8.18;;
22752;SDS011;11543;43.144;24.684;2022-08-19T07:00:08;11.02;;;7.20;;
22752;SDS011;11543;43.144;24.684;2022-08-19T07:02:41;6.50;;;5.47;;
22752;SDS011;11543;43.144;24.684;2022-08-19T07:05:07;10.70;;;6.18;;
22752;SDS011;11543;43.144;24.684;2022-08-19T07:07:33;8.95;;;5.72;;
22752;SDS011;11543;43.144;24.684;2022-08-19T07:09:59;8.00;;;5.90;;
22752;SDS011;11543;43.144;24.684;2022-08-19T07:12:25;8.25;;;6.22;;
22752;SDS011;11543;43.144;24.684;2022-08-19T07:14:58;8.98;;;6.57;;
22752;SDS011;11543;43.144;24.684;2022-08-19T07:17:24;11.80;;;5.93;;
22752;SDS011;11543;43.144;24.684;2022-08-19T07:19:50;11.43;;;6.18;;
22752;SDS011;11543;43.144;24.684;2022-08-19T07:22:16;10.77;;;5.78;;
22752;SDS011;11543;43.144;24.684;2022-08-19T07:24:42;9.38;;;5.45;;
22752;SDS011;11543;43.144;24.684;2022-08-19T07:27:08;9.25;;;6.25;;
22752;SDS011;11543;43.144;24.684;2022-08-19T07:29:35;8.70;;;6.20;;
22752;SDS011;11543;43.144;24.684;2022-08-19T07:32:02;10.30;;;5.90;;
22752;SDS011;11543;43.144;24.684;2022-08-19T07:34:29;13.68;;;6.22;;
22752;SDS011;11543;43.144;24.684;2022-08-19T07:36:55;9.65;;;6.20;;
22752;SDS011;11543;43.144;24.684;2022-08-19T07:39:24;9.40;;;5.72;;
22752;SDS011;11543;43.144;24.684;2022-08-19T07:41:53;10.60;;;6.10;;
22752;SDS011;11543;43.144;24.684;2022-08-19T07:44:20;12.52;;;6.20;;
22752;SDS011;11543;43.144;24.684;2022-08-19T07:46:47;12.60;;;6.18;;
22752;SDS011;11543;43.144;24.684;2022-08-19T07:49:15;11.23;;;6.05;;
22752;SDS011;11543;43.144;24.684;2022-08-19T07:51:57;10.98;;;6.20;;
22752;SDS011;11543;43.144;24.684;2022-08-19T07:54:27;10.35;;;5.97;;
22752;SDS011;11543;43.144;24.684;2022-08-19T07:56:54;13.95;;;5.40;;
22752;SDS011;11543;43.144;24.684;2022-08-19T07:59:23;7.95;;;5.30;;
22752;SDS011;11543;43.144;24.684;2022-08-19T08:01:50;10.98;;;5.72;;
22752;SDS011;11543;43.144;24.684;2022-08-19T08:04:17;11.95;;;5.55;;
22752;SDS011;11543;43.144;24.684;2022-08-19T08:07:02;8.73;;;5.63;;
22752;SDS011;11543;43.144;24.684;2022-08-19T08:09:47;8.98;;;5.60;;
22752;SDS011;11543;43.144;24.684;2022-08-19T08:12:15;7.82;;;5.20;;
22752;SDS011;11543;43.144;24.684;2022-08-19T08:14:51;6.68;;;5.57;;
22752;SDS011;11543;43.144;24.684;2022-08-19T08:17:19;9.57;;;4.90;;
22752;SDS011;11543;43.144;24.684;2022-08-19T08:19:46;6.85;;;5.13;;
22752;SDS011;11543;43.144;24.684;2022-08-19T08:22:14;8.43;;;5.30;;
22752;SDS011;11543;43.144;24.684;2022-08-19T08:25:02;8.60;;;4.68;;
22752;SDS011;11543;43.144;24.684;2022-08-19T08:27:35;7.93;;;4.70;;
22752;SDS011;11543;43.144;24.684;2022-08-19T08:30:08;10.63;;;5.03;;
22752;SDS011;11543;43.144;24.684;2022-08-19T08:32:38;6.83;;;4.30;;
22752;SDS011;11543;43.144;24.684;2022-08-19T08:35:04;6.80;;;4.70;;
22752;SDS011;11543;43.144;24.684;2022-08-19T08:37:32;7.85;;;4.70;;
22752;SDS011;11543;43.144;24.684;2022-08-19T08:39:57;6.05;;;4.15;;
22752;SDS011;11543;43.144;24.684;2022-08-19T08:42:29;7.88;;;4.85;;
22752;SDS011;11543;43.144;24.684;2022-08-19T08:45:00;6.53;;;4.65;;
22752;SDS011;11543;43.144;24.684;2022-08-19T08:47:39;6.80;;;4.87;;
22752;SDS011;11543;43.144;24.684;2022-08-19T08:50:18;6.57;;;4.75;;
22752;SDS011;11543;43.144;24.684;2022-08-19T08:52:57;7.38;;;4.68;;
22752;SDS011;11543;43.144;24.684;2022-08-19T08:55:25;7.57;;;4.57;;
22752;SDS011;11543;43.144;24.684;2022-08-19T09:00:32;8.50;;;4.80;;
22752;SDS011;11543;43.144;24.684;2022-08-19T09:03:03;6.88;;;5.05;;
22752;SDS011;11543;43.144;24.684;2022-08-19T09:05:45;6.95;;;4.85;;
22752;SDS011;11543;43.144;24.684;2022-08-19T09:16:41;6.75;;;4.40;;
22752;SDS011;11543;43.144;24.684;2022-08-19T09:19:08;7.07;;;4.85;;
22752;SDS011;11543;43.144;24.684;2022-08-19T09:21:33;5.47;;;4.60;;
22752;SDS011;11543;43.144;24.684;2022-08-19T09:24:02;7.40;;;4.72;;
22752;SDS011;11543;43.144;24.684;2022-08-19T09:26:30;8.55;;;4.90;;
22752;SDS011;11543;43.144;24.684;2022-08-19T09:28:57;7.70;;;4.50;;
22752;SDS011;11543;43.144;24.684;2022-08-19T09:31:25;7.13;;;4.30;;
22752;SDS011;11543;43.144;24.684;2022-08-19T09:33:53;7.32;;;4.28;;
22752;SDS011;11543;43.144;24.684;2022-08-19T09:36:22;5.85;;;4.50;;
22752;SDS011;11543;43.144;24.684;2022-08-19T09:38:50;8.82;;;4.80;;
22752;SDS011;11543;43.144;24.684;2022-08-19T09:41:18;6.55;;;4.45;;
22752;SDS011;11543;43.144;24.684;2022-08-19T09:43:48;9.23;;;4.43;;
22752;SDS011;11543;43.144;24.684;2022-08-19T09:46:20;6.43;;;4.47;;
22752;SDS011;11543;43.144;24.684;2022-08-19T09:48:48;8.07;;;4.40;;
22752;SDS011;11543;43.144;24.684;2022-08-19T09:51:25;6.95;;;4.25;;
22752;SDS011;11543;43.144;24.684;2022-08-19T09:53:52;6.00;;;4.15;;
22752;SDS011;11543;43.144;24.684;2022-08-19T09:56:22;6.32;;;4.30;;
22752;SDS011;11543;43.144;24.684;2022-08-19T09:58:48;8.68;;;4.63;;
22752;SDS011;11543;43.144;24.684;2022-08-19T10:01:16;7.43;;;4.38;;
22752;SDS011;11543;43.144;24.684;2022-08-19T10:03:46;6.95;;;4.40;;
22752;SDS011;11543;43.144;24.684;2022-08-19T10:06:13;6.10;;;4.38;;
22752;SDS011;11543;43.144;24.684;2022-08-19T10:08:38;7.05;;;3.90;;
22752;SDS011;11543;43.144;24.684;2022-08-19T10:11:07;5.57;;;4.20;;
22752;SDS011;11543;43.144;24.684;2022-08-19T10:13:34;5.43;;;4.03;;
22752;SDS011;11543;43.144;24.684;2022-08-19T10:16:19;7.45;;;4.13;;
22752;SDS011;11543;43.144;24.684;2022-08-19T10:18:47;6.30;;;3.90;;
22752;SDS011;11543;43.144;24.684;2022-08-19T10:21:19;8.80;;;4.00;;
22752;SDS011;11543;43.144;24.684;2022-08-19T10:23:49;4.53;;;3.70;;
22752;SDS011;11543;43.144;24.684;2022-08-19T10:26:17;7.25;;;4.18;;
22752;SDS011;11543;43.144;24.684;2022-08-19T10:28:47;6.43;;;3.63;;
22752;SDS011;11543;43.144;24.684;2022-08-19T10:31:14;7.47;;;4.47;;
22752;SDS011;11543;43.144;24.684;2022-08-19T10:33:45;5.93;;;3.95;;
22752;SDS011;11543;43.144;24.684;2022-08-19T10:36:18;5.03;;;4.18;;
22752;SDS011;11543;43.144;24.684;2022-08-19T10:38:45;6.53;;;3.92;;
22752;SDS011;11543;43.144;24.684;2022-08-19T10:41:15;6.65;;;4.15;;
22752;SDS011;11543;43.144;24.684;2022-08-19T10:43:47;4.93;;;3.83;;
22752;SDS011;11543;43.144;24.684;2022-08-19T10:46:17;5.60;;;3.75;;
22752;SDS011;11543;43.144;24.684;2022-08-19T10:48:44;5.45;;;3.90;;
22752;SDS011;11543;43.144;24.684;2022-08-19T10:51:10;6.85;;;4.05;;
22752;SDS011;11543;43.144;24.684;2022-08-19T10:53:55;6.88;;;4.03;;
22752;SDS011;11543;43.144;24.684;2022-08-19T10:56:22;7.10;;;4.00;;
22752;SDS011;11543;43.144;24.684;2022-08-19T10:59:13;6.15;;;3.90;;
22752;SDS011;11543;43.144;24.684;2022-08-19T11:01:41;7.20;;;4.20;;
22752;SDS011;11543;43.144;24.684;2022-08-19T11:04:08;7.28;;;3.78;;
22752;SDS011;11543;43.144;24.684;2022-08-19T11:06:38;7.05;;;3.95;;
22752;SDS011;11543;43.144;24.684;2022-08-19T11:09:06;6.43;;;3.90;;
22752;SDS011;11543;43.144;24.684;2022-08-19T11:11:32;7.38;;;5.20;;
22752;SDS011;11543;43.144;24.684;2022-08-19T11:14:00;11.35;;;4.15;;
22752;SDS011;11543;43.144;24.684;2022-08-19T11:16:26;8.15;;;4.60;;
22752;SDS011;11543;43.144;24.684;2022-08-19T11:18:54;7.47;;;3.80;;
22752;SDS011;11543;43.144;24.684;2022-08-19T11:21:27;10.18;;;4.15;;
22752;SDS011;11543;43.144;24.684;2022-08-19T11:23:59;8.95;;;3.85;;
22752;SDS011;11543;43.144;24.684;2022-08-19T11:26:31;7.00;;;3.90;;
22752;SDS011;11543;43.144;24.684;2022-08-19T11:28:58;5.28;;;4.15;;
22752;SDS011;11543;43.144;24.684;2022-08-19T11:31:27;5.05;;;3.97;;
22752;SDS011;11543;43.144;24.684;2022-08-19T11:34:05;9.00;;;3.83;;
22752;SDS011;11543;43.144;24.684;2022-08-19T11:36:33;7.13;;;3.72;;
22752;SDS011;11543;43.144;24.684;2022-08-19T11:39:03;6.00;;;3.97;;
22752;SDS011;11543;43.144;24.684;2022-08-19T11:41:30;6.65;;;3.70;;
22752;SDS011;11543;43.144;24.684;2022-08-19T11:43:56;7.18;;;3.80;;
22752;SDS011;11543;43.144;24.684;2022-08-19T11:46:27;5.82;;;3.83;;
22752;SDS011;11543;43.144;24.684;2022-08-19T11:48:58;8.13;;;4.30;;
22752;SDS011;11543;43.144;24.684;2022-08-19T11:51:26;6.13;;;3.67;;
22752;SDS011;11543;43.144;24.684;2022-08-19T11:53:53;7.10;;;4.00;;
22752;SDS011;11543;43.144;24.684;2022-08-19T11:56:20;7.60;;;3.67;;
22752;SDS011;11543;43.144;24.684;2022-08-19T11:58:47;6.68;;;4.00;;
22752;SDS011;11543;43.144;24.684;2022-08-19T12:01:16;5.72;;;3.78;;
22752;SDS011;11543;43.144;24.684;2022-08-19T12:03:47;7.03;;;4.13;;
22752;SDS011;11543;43.144;24.684;2022-08-19T12:06:15;8.35;;;4.00;;
22752;SDS011;11543;43.144;24.684;2022-08-19T12:08:47;6.22;;;3.85;;
22752;SDS011;11543;43.144;24.684;2022-08-19T12:11:17;10.98;;;4.57;;
22752;SDS011;11543;43.144;24.684;2022-08-19T12:13:43;6.10;;;4.00;;
22752;SDS011;11543;43.144;24.684;2022-08-19T12:16:14;10.57;;;3.95;;
22752;SDS011;11543;43.144;24.684;2022-08-19T12:18:48;8.25;;;3.97;;
22752;SDS011;11543;43.144;24.684;2022-08-19T12:21:16;6.40;;;4.00;;
22752;SDS011;11543;43.144;24.684;2022-08-19T12:23:46;6.53;;;4.13;;
22752;SDS011;11543;43.144;24.684;2022-08-19T12:26:15;7.40;;;3.50;;
22752;SDS011;11543;43.144;24.684;2022-08-19T12:28:41;8.68;;;4.15;;
22752;SDS011;11543;43.144;24.684;2022-08-19T12:33:55;8.25;;;4.40;;
22752;SDS011;11543;43.144;24.684;2022-08-19T12:36:27;5.65;;;4.10;;
22752;SDS011;11543;43.144;24.684;2022-08-19T12:38:59;7.32;;;3.80;;
22752;SDS011;11543;43.144;24.684;2022-08-19T12:41:52;6.65;;;4.13;;
22752;SDS011;11543;43.144;24.684;2022-08-19T12:44:18;4.97;;;3.80;;
22752;SDS011;11543;43.144;24.684;2022-08-19T12:46:44;7.15;;;3.63;;
22752;SDS011;11543;43.144;24.684;2022-08-19T12:49:14;5.95;;;3.83;;
22752;SDS011;11543;43.144;24.684;2022-08-19T12:51:40;5.88;;;3.70;;
22752;SDS011;11543;43.144;24.684;2022-08-19T12:54:06;6.28;;;3.92;;
22752;SDS011;11543;43.144;24.684;2022-08-19T12:56:31;4.45;;;3.50;;
22752;SDS011;11543;43.144;24.684;2022-08-19T12:59:00;6.05;;;3.65;;
22752;SDS011;11543;43.144;24.684;2022-08-19T13:01:36;9.90;;;3.83;;
22752;SDS011;11543;43.144;24.684;2022-08-19T13:04:03;7.00;;;3.65;;
22752;SDS011;11543;43.144;24.684;2022-08-19T13:06:30;6.75;;;3.78;;
22752;SDS011;11543;43.144;24.684;2022-08-19T13:08:58;5.93;;;3.53;;
22752;SDS011;11543;43.144;24.684;2022-08-19T13:11:23;7.80;;;3.85;;
22752;SDS011;11543;43.144;24.684;2022-08-19T13:13:49;6.30;;;3.78;;
22752;SDS011;11543;43.144;24.684;2022-08-19T13:16:16;6.75;;;3.90;;
22752;SDS011;11543;43.144;24.684;2022-08-19T13:18:44;6.10;;;3.90;;
22752;SDS011;11543;43.144;24.684;2022-08-19T13:21:16;7.28;;;3.85;;
22752;SDS011;11543;43.144;24.684;2022-08-19T13:23:45;5.80;;;4.00;;
22752;SDS011;11543;43.144;24.684;2022-08-19T13:26:15;8.10;;;3.50;;
22752;SDS011;11543;43.144;24.684;2022-08-19T13:28:42;5.90;;;3.53;;
22752;SDS011;11543;43.144;24.684;2022-08-19T13:31:30;4.18;;;3.65;;
22752;SDS011;11543;43.144;24.684;2022-08-19T13:34:17;5.18;;;3.75;;
22752;SDS011;11543;43.144;24.684;2022-08-19T13:36:45;7.10;;;3.88;;
22752;SDS011;11543;43.144;24.684;2022-08-19T13:39:10;7.68;;;3.65;;
22752;SDS011;11543;43.144;24.684;2022-08-19T13:41:37;8.82;;;4.05;;
22752;SDS011;11543;43.144;24.684;2022-08-19T13:44:08;6.32;;;3.83;;
22752;SDS011;11543;43.144;24.684;2022-08-19T13:46:33;5.63;;;3.45;;
22752;SDS011;11543;43.144;24.684;2022-08-19T13:48:59;5.82;;;3.50;;
22752;SDS011;11543;43.144;24.684;2022-08-19T13:51:25;6.30;;;3.53;;
22752;SDS011;11543;43.144;24.684;2022-08-19T13:53:52;4.60;;;3.60;;
22752;SDS011;11543;43.144;24.684;2022-08-19T13:56:19;5.07;;;3.53;;
22752;SDS011;11543;43.144;24.684;2022-08-19T13:58:45;6.95;;;3.67;;
22752;SDS011;11543;43.144;24.684;2022-08-19T14:01:18;7.53;;;3.40;;
22752;SDS011;11543;43.144;24.684;2022-08-19T14:03:49;5.97;;;3.63;;
22752;SDS011;11543;43.144;24.684;2022-08-19T14:13:15;6.50;;;3.70;;
22752;SDS011;11543;43.144;24.684;2022-08-19T14:16:08;6.25;;;3.90;;
22752;SDS011;11543;43.144;24.684;2022-08-19T14:18:46;5.30;;;3.92;;
22752;SDS011;11543;43.144;24.684;2022-08-19T14:21:16;5.43;;;3.92;;
22752;SDS011;11543;43.144;24.684;2022-08-19T14:24:04;6.82;;;3.90;;
22752;SDS011;11543;43.144;24.684;2022-08-19T14:26:30;6.95;;;3.67;;
22752;SDS011;11543;43.144;24.684;2022-08-19T14:29:05;13.40;;;3.90;;
22752;SDS011;11543;43.144;24.684;2022-08-19T14:31:50;5.20;;;3.67;;
22752;SDS011;11543;43.144;24.684;2022-08-19T14:34:22;8.45;;;3.90;;
22752;SDS011;11543;43.144;24.684;2022-08-19T14:36:48;7.35;;;3.97;;
22752;SDS011;11543;43.144;24.684;2022-08-19T14:39:14;4.85;;;3.30;;
22752;SDS011;11543;43.144;24.684;2022-08-19T14:41:40;7.57;;;3.67;;
22752;SDS011;11543;43.144;24.684;2022-08-19T14:44:08;7.32;;;4.10;;
22752;SDS011;11543;43.144;24.684;2022-08-19T14:49:05;5.93;;;4.05;;
22752;SDS011;11543;43.144;24.684;2022-08-19T14:51:32;7.13;;;3.92;;
22752;SDS011;11543;43.144;24.684;2022-08-19T14:53:57;7.18;;;3.80;;
22752;SDS011;11543;43.144;24.684;2022-08-19T14:56:25;5.45;;;3.72;;
22752;SDS011;11543;43.144;24.684;2022-08-19T14:58:53;7.05;;;3.70;;
22752;SDS011;11543;43.144;24.684;2022-08-19T15:01:22;5.45;;;3.63;;
22752;SDS011;11543;43.144;24.684;2022-08-19T15:03:48;8.00;;;4.00;;
22752;SDS011;11543;43.144;24.684;2022-08-19T15:06:15;8.27;;;3.75;;